createdAt,value
2022-12-24T00:02:10.738Z,38.45
2022-12-24T00:05:12.439Z,32.67
2022-12-24T00:08:14.029Z,37.70
2022-12-24T00:11:15.603Z,34.88
2022-12-24T00:14:17.159Z,35.63
2022-12-24T00:17:18.951Z,37.00
2022-12-24T00:20:20.478Z,37.95
2022-12-24T00:23:22.046Z,35.33
2022-12-24T00:26:23.602Z,36.05
2022-12-24T00:29:25.230Z,35.38
2022-12-24T00:32:26.773Z,41.03
2022-12-24T00:35:28.335Z,40.67
2022-12-24T00:38:29.890Z,37.95
2022-12-24T00:41:31.601Z,38.47
2022-12-24T00:44:33.126Z,33.13
2022-12-24T00:47:34.677Z,36.58
2022-12-24T00:50:36.230Z,41.88
2022-12-24T00:53:37.798Z,38.20
2022-12-24T00:56:39.336Z,41.40
2022-12-24T00:59:40.867Z,38.80
2022-12-24T01:02:42.608Z,40.05
2022-12-24T01:05:44.238Z,34.00
2022-12-24T01:08:46.043Z,49.92
2022-12-24T01:11:47.616Z,49.35
2022-12-24T01:14:49.249Z,55.22
2022-12-24T01:17:50.816Z,48.97
2022-12-24T01:20:57.407Z,46.72
2022-12-24T01:23:59.050Z,41.20
2022-12-24T01:27:00.636Z,47.42
2022-12-24T01:30:02.363Z,41.45
2022-12-24T01:33:03.962Z,51.20
2022-12-24T01:36:05.868Z,49.67
2022-12-24T01:39:07.402Z,46.92
2022-12-24T01:42:45.356Z,52.17
2022-12-24T01:45:49.793Z,55.42
2022-12-24T01:49:06.553Z,42.83
2022-12-24T01:52:14.757Z,36.00
2022-12-24T01:55:18.493Z,47.53
2022-12-24T01:58:22.525Z,52.70
2022-12-24T02:01:24.645Z,47.00
2022-12-24T02:04:37.391Z,42.45
2022-12-24T02:07:39.546Z,48.65
2022-12-24T02:10:41.336Z,49.70
2022-12-24T02:13:47.261Z,42.35
2022-12-24T02:17:13.250Z,43.90
2022-12-24T02:20:26.583Z,48.55
2022-12-24T02:24:02.238Z,42.17
2022-12-24T02:27:28.500Z,45.85
2022-12-24T02:30:48.667Z,46.35
2022-12-24T02:33:59.512Z,51.38
2022-12-24T02:37:06.603Z,44.83
2022-12-24T02:40:17.048Z,47.17
2022-12-24T02:43:24.194Z,40.80
2022-12-24T02:46:30.158Z,41.25
2022-12-24T02:49:31.787Z,46.17
2022-12-24T02:52:42.192Z,38.17
2022-12-24T02:55:59.849Z,51.10
2022-12-24T02:59:28.446Z,48.50
2022-12-24T03:03:08.103Z,48.75
2022-12-24T03:06:15.777Z,41.25
2022-12-24T03:09:50.281Z,53.42
2022-12-24T03:12:55.595Z,37.90
2022-12-24T03:15:57.278Z,47.85
2022-12-24T03:19:02.917Z,53.63
2022-12-24T03:22:09.495Z,52.20
2022-12-24T03:25:11.026Z,48.50
2022-12-24T03:28:15.220Z,36.97
2022-12-24T03:31:18.595Z,40.00
2022-12-24T03:34:20.259Z,46.95
2022-12-24T03:37:22.035Z,39.53
2022-12-24T03:40:23.607Z,50.08
2022-12-24T03:43:25.278Z,54.88
2022-12-24T03:46:26.941Z,41.35
2022-12-24T03:49:28.626Z,32.80
2022-12-24T03:52:30.222Z,48.33
2022-12-24T03:55:31.809Z,47.22
2022-12-24T03:58:33.383Z,39.15
2022-12-24T04:01:35.094Z,35.28
2022-12-24T04:04:37.678Z,41.08
2022-12-24T04:07:39.288Z,38.85
2022-12-24T04:10:40.829Z,36.65
2022-12-24T04:13:42.928Z,37.83
2022-12-24T04:16:44.581Z,37.22
2022-12-24T04:19:46.183Z,42.13
2022-12-24T04:22:47.715Z,33.63
2022-12-24T04:25:49.318Z,40.80
2022-12-24T04:28:57.383Z,38.50
2022-12-24T04:31:59.004Z,28.73
2022-12-24T04:35:00.586Z,33.05
2022-12-24T04:38:02.127Z,33.60
2022-12-24T04:41:05.431Z,28.73
2022-12-24T04:44:07.016Z,32.50
2022-12-24T04:47:08.627Z,28.60
2022-12-24T04:50:10.850Z,39.22
2022-12-24T04:53:14.830Z,35.00
2022-12-24T04:56:19.372Z,32.60
2022-12-24T04:59:20.933Z,30.00
2022-12-24T05:02:22.597Z,29.65
2022-12-24T05:05:24.211Z,32.22
2022-12-24T05:08:25.733Z,27.75
2022-12-24T05:11:28.080Z,34.97
2022-12-24T05:14:29.637Z,32.05
2022-12-24T05:17:31.229Z,30.25
2022-12-24T05:20:32.810Z,27.10
2022-12-24T05:23:53.065Z,32.63
2022-12-24T05:26:57.262Z,27.35
2022-12-24T05:29:58.785Z,31.95
2022-12-24T05:33:00.326Z,25.35
2022-12-24T05:36:01.851Z,29.77
2022-12-24T05:39:06.279Z,33.30
2022-12-24T05:42:11.559Z,31.20
2022-12-24T05:45:13.123Z,36.20
2022-12-24T05:48:14.644Z,31.33
2022-12-24T05:51:22.045Z,27.88
2022-12-24T05:54:23.699Z,29.73
2022-12-24T05:57:25.435Z,31.52
2022-12-24T06:00:27.524Z,34.80
2022-12-24T06:03:29.818Z,33.33
2022-12-24T06:06:31.470Z,41.80
2022-12-24T06:09:33.279Z,33.10
2022-12-24T06:12:35.272Z,35.70
2022-12-24T06:15:36.981Z,33.03
2022-12-24T06:18:40.010Z,37.90
2022-12-24T06:21:41.594Z,33.80
2022-12-24T06:24:43.192Z,27.23
2022-12-24T06:27:44.718Z,25.50
2022-12-24T06:30:48.531Z,35.33
2022-12-24T06:33:51.150Z,23.25
2022-12-24T06:36:52.694Z,33.47
2022-12-24T06:39:54.243Z,25.70
2022-12-24T06:42:55.873Z,37.63
2022-12-24T06:45:57.500Z,34.67
2022-12-24T06:49:00.480Z,37.20
2022-12-24T06:52:02.026Z,32.33
2022-12-24T06:55:04.219Z,35.22
2022-12-24T06:58:05.963Z,29.75
2022-12-24T07:01:10.523Z,34.60
2022-12-24T07:04:19.703Z,30.73
2022-12-24T07:07:21.815Z,40.28
2022-12-24T07:10:23.417Z,43.28
2022-12-24T07:13:24.929Z,34.08
2022-12-24T07:16:26.589Z,43.80
2022-12-24T07:19:28.230Z,39.13
2022-12-24T07:22:29.797Z,34.75
2022-12-24T07:25:31.368Z,42.72
2022-12-24T07:28:33.671Z,33.97
2022-12-24T07:31:35.257Z,37.70
2022-12-24T07:34:37.087Z,38.95
2022-12-24T07:37:38.683Z,39.63
2022-12-24T07:40:40.273Z,46.03
2022-12-24T07:43:41.913Z,41.85
2022-12-24T07:46:44.434Z,38.38
2022-12-24T07:49:46.255Z,47.30
2022-12-24T07:52:47.862Z,40.78
2022-12-24T07:55:49.714Z,40.08
2022-12-24T07:58:52.114Z,40.70
2022-12-24T08:01:53.852Z,42.47
2022-12-24T08:04:55.701Z,50.15
2022-12-24T08:07:57.221Z,38.15
2022-12-24T08:11:05.809Z,44.00
2022-12-24T08:14:07.593Z,41.92
2022-12-24T08:17:09.119Z,48.22
2022-12-24T08:20:11.593Z,41.58
2022-12-24T08:23:13.280Z,44.38
2022-12-24T08:26:14.956Z,45.85
2022-12-24T08:29:16.570Z,39.40
2022-12-24T08:32:18.550Z,49.53
2022-12-24T08:35:20.554Z,39.78
2022-12-24T08:38:22.739Z,44.60
2022-12-24T08:41:24.391Z,48.15
2022-12-24T08:44:26.095Z,39.90
2022-12-24T08:47:27.638Z,43.28
2022-12-24T08:50:29.290Z,44.60
2022-12-24T08:53:30.823Z,38.45
2022-12-24T08:56:34.362Z,39.92
2022-12-24T08:59:35.893Z,42.22
2022-12-24T09:02:37.588Z,47.65
2022-12-24T09:05:40.233Z,48.78
2022-12-24T09:08:41.874Z,39.13
2022-12-24T09:11:43.470Z,41.83
2022-12-24T09:14:45.031Z,57.10
2022-12-24T09:17:46.965Z,54.10
2022-12-24T09:20:52.412Z,48.58
2022-12-24T09:23:57.200Z,38.25
2022-12-24T09:26:59.199Z,36.30
2022-12-24T09:30:00.846Z,49.63
2022-12-24T09:33:02.465Z,53.65
2022-12-24T09:36:05.520Z,42.45
2022-12-24T09:39:07.304Z,45.20
2022-12-24T09:42:48.772Z,38.80
2022-12-24T09:46:09.144Z,48.53
2022-12-24T09:49:17.117Z,45.50
2022-12-24T09:52:35.335Z,34.85
2022-12-24T09:55:44.078Z,42.47
2022-12-24T09:58:58.376Z,42.50
2022-12-24T10:02:01.204Z,44.55
2022-12-24T10:05:02.850Z,46.22
2022-12-24T10:08:21.727Z,46.38
2022-12-24T10:11:45.570Z,49.40
2022-12-24T10:14:55.657Z,40.25
2022-12-24T10:18:18.540Z,47.03
2022-12-24T10:21:58.000Z,49.33
2022-12-24T10:25:06.397Z,37.72
2022-12-24T10:28:19.004Z,45.55
2022-12-24T10:31:26.501Z,35.28
2022-12-24T10:34:33.428Z,40.50
2022-12-24T10:37:35.031Z,47.80
2022-12-24T10:40:41.644Z,50.85
2022-12-24T10:43:44.896Z,38.38
2022-12-24T10:46:47.661Z,50.13
2022-12-24T10:50:00.916Z,43.05
2022-12-24T10:53:24.544Z,45.15
2022-12-24T10:56:26.059Z,36.42
2022-12-24T10:59:31.225Z,40.75
2022-12-24T11:02:36.192Z,53.70
2022-12-24T11:05:39.254Z,43.80
2022-12-24T11:08:44.941Z,46.60
2022-12-24T11:11:46.533Z,49.63
2022-12-24T11:14:49.322Z,46.17
2022-12-24T11:17:56.676Z,54.00
2022-12-24T11:21:00.768Z,49.17
2022-12-24T11:24:26.312Z,53.08
2022-12-24T11:27:50.621Z,38.83
2022-12-24T11:31:00.249Z,40.60
2022-12-24T11:34:25.233Z,48.88
2022-12-24T11:37:26.918Z,51.30
2022-12-24T11:40:49.140Z,45.25
2022-12-24T11:43:57.742Z,43.53
2022-12-24T11:46:59.398Z,45.95
2022-12-24T11:50:22.308Z,45.15
2022-12-24T11:53:45.041Z,46.60
2022-12-24T11:56:53.555Z,43.38
2022-12-24T11:59:55.146Z,42.45
2022-12-24T12:03:01.309Z,46.50
2022-12-24T12:06:09.056Z,42.35
2022-12-24T12:09:19.118Z,46.17
2022-12-24T12:12:30.264Z,40.53
2022-12-24T12:15:42.390Z,44.20
2022-12-24T12:18:51.797Z,39.25
2022-12-24T12:21:55.277Z,40.53
2022-12-24T12:24:58.890Z,34.70
2022-12-24T12:28:03.284Z,43.50
2022-12-24T12:31:19.346Z,40.85
2022-12-24T12:34:37.461Z,40.40
2022-12-24T12:37:44.384Z,45.25
2022-12-24T12:41:01.450Z,43.55
2022-12-24T12:44:16.018Z,34.90
2022-12-24T12:47:17.487Z,39.45
2022-12-24T12:50:40.563Z,39.55
2022-12-24T12:54:04.516Z,35.25
2022-12-24T12:57:11.337Z,39.58
2022-12-24T13:00:18.610Z,45.15
2022-12-24T13:03:35.321Z,38.95
2022-12-24T13:07:03.105Z,45.10
2022-12-24T13:10:16.492Z,32.95
2022-12-24T13:13:57.748Z,38.53
2022-12-24T13:17:17.356Z,38.65
2022-12-24T13:20:29.599Z,37.10
2022-12-24T13:23:31.462Z,32.10
2022-12-24T13:26:33.553Z,31.02
2022-12-24T13:29:35.055Z,37.67
2022-12-24T13:32:56.135Z,28.38
2022-12-24T13:36:01.146Z,44.67
2022-12-24T13:39:02.709Z,29.15
2022-12-24T13:42:04.365Z,34.42
2022-12-24T13:45:34.202Z,33.03
2022-12-24T13:48:35.901Z,32.07
2022-12-24T13:51:37.443Z,37.17
2022-12-24T13:54:49.533Z,39.88
2022-12-24T13:58:05.432Z,36.40
2022-12-24T14:01:14.946Z,33.47
2022-12-24T14:04:27.884Z,33.47
2022-12-24T14:07:30.031Z,35.13
2022-12-24T14:10:43.886Z,38.22
2022-12-24T14:13:48.207Z,25.75
2022-12-24T14:16:51.435Z,35.95
2022-12-24T14:19:55.923Z,28.52
2022-12-24T14:22:57.894Z,30.73
2022-12-24T14:26:02.289Z,35.45
2022-12-24T14:29:13.413Z,32.95
2022-12-24T14:32:16.713Z,33.92
2022-12-24T14:35:27.325Z,34.50
2022-12-24T14:38:29.650Z,37.58
2022-12-24T14:41:53.262Z,32.65
2022-12-24T14:45:37.467Z,39.78
2022-12-24T14:49:11.513Z,40.38
2022-12-24T14:52:54.661Z,34.53
2022-12-24T14:55:46.290Z,26.55
2022-12-24T14:58:48.376Z,30.45
2022-12-24T15:01:50.097Z,33.17
2022-12-24T15:05:10.242Z,35.90
2022-12-24T15:08:18.372Z,31.83
2022-12-24T15:11:22.993Z,29.25
2022-12-24T15:14:28.360Z,29.13
2022-12-24T15:17:30.093Z,31.92
2022-12-24T15:20:32.463Z,39.05
2022-12-24T15:23:36.554Z,25.75
2022-12-24T15:26:44.900Z,30.83
2022-12-24T15:29:49.113Z,31.98
2022-12-24T15:32:53.191Z,32.58
2022-12-24T15:35:56.570Z,32.13
2022-12-24T15:39:00.809Z,28.98
2022-12-24T15:42:14.962Z,32.28
2022-12-24T15:45:27.294Z,39.22
2022-12-24T15:48:32.491Z,33.78
2022-12-24T15:51:40.117Z,35.60
2022-12-24T15:54:55.459Z,35.40
2022-12-24T15:57:59.043Z,28.45
2022-12-24T16:01:09.810Z,33.42
2022-12-24T16:04:16.744Z,39.35
2022-12-24T16:07:26.691Z,35.05
2022-12-24T16:10:28.264Z,32.92
2022-12-24T16:13:32.292Z,29.50
2022-12-24T16:16:46.129Z,24.63
2022-12-24T16:19:53.245Z,44.35
2022-12-24T16:22:55.099Z,38.40
2022-12-24T16:25:58.970Z,37.50
2022-12-24T16:29:00.872Z,41.28
2022-12-24T16:32:02.407Z,35.20
2022-12-24T16:35:07.820Z,30.35
2022-12-24T16:38:11.097Z,39.03
2022-12-24T16:41:13.057Z,40.40
2022-12-24T16:44:14.577Z,30.08
2022-12-24T16:47:20.321Z,38.85
2022-12-24T16:50:22.033Z,47.53
2022-12-24T16:53:23.948Z,48.55
2022-12-24T16:56:25.510Z,63.75
2022-12-24T16:59:27.079Z,41.00
2022-12-24T17:02:28.771Z,41.30
2022-12-24T17:05:30.551Z,43.00
2022-12-24T17:08:32.204Z,61.35
2022-12-24T17:11:33.921Z,39.00
2022-12-24T17:14:36.157Z,34.28
2022-12-24T17:17:37.995Z,38.88
2022-12-24T17:20:39.529Z,34.08
2022-12-24T17:23:41.897Z,37.25
2022-12-24T17:26:43.715Z,41.20
2022-12-24T17:29:45.579Z,39.15
2022-12-24T17:32:47.149Z,41.35
2022-12-24T17:35:49.337Z,41.42
2022-12-24T17:38:50.885Z,38.88
2022-12-24T17:41:52.441Z,35.90
2022-12-24T17:44:53.986Z,46.75
2022-12-24T17:47:55.526Z,35.25
2022-12-24T17:50:57.261Z,50.65
2022-12-24T17:53:59.642Z,48.00
2022-12-24T17:57:01.680Z,40.33
2022-12-24T18:00:04.051Z,40.38
2022-12-24T18:03:05.950Z,52.40
2022-12-24T18:06:09.280Z,37.53
2022-12-24T18:09:10.823Z,39.80
2022-12-24T18:12:13.676Z,37.45
2022-12-24T18:15:19.126Z,55.20
2022-12-24T18:18:20.959Z,46.40
2022-12-24T18:21:24.940Z,36.10
2022-12-24T18:24:26.576Z,51.80
2022-12-24T18:27:28.112Z,45.50
2022-12-24T18:30:29.640Z,35.92
2022-12-24T18:33:33.341Z,42.95
2022-12-24T18:36:35.610Z,38.97
2022-12-24T18:39:37.226Z,47.45
2022-12-24T18:42:41.083Z,46.90
2022-12-24T18:45:46.574Z,43.42
2022-12-24T18:48:48.443Z,54.00
2022-12-24T18:51:50.022Z,45.13
2022-12-24T18:54:51.973Z,58.45
2022-12-24T18:57:53.600Z,51.53
2022-12-24T19:00:55.461Z,50.97
2022-12-24T19:03:57.486Z,48.50
2022-12-24T19:07:00.320Z,42.85
2022-12-24T19:10:01.960Z,46.70
2022-12-24T19:13:03.862Z,38.53
2022-12-24T19:16:07.577Z,41.95
2022-12-24T19:19:11.195Z,48.25
2022-12-24T19:22:17.286Z,49.70
2022-12-24T19:25:18.913Z,41.80
2022-12-24T19:28:25.712Z,46.72
2022-12-24T19:31:27.680Z,42.45
2022-12-24T19:34:29.353Z,54.60
2022-12-24T19:37:31.248Z,46.88
2022-12-24T19:40:36.564Z,53.17
2022-12-24T19:43:41.106Z,43.60
2022-12-24T19:46:42.698Z,48.00
2022-12-24T19:49:44.284Z,46.88
2022-12-24T19:52:46.025Z,40.95
2022-12-24T19:55:47.547Z,56.20
2022-12-24T19:58:49.631Z,54.03
2022-12-24T20:01:53.564Z,43.92
2022-12-24T20:04:55.451Z,53.88
2022-12-24T20:07:57.126Z,50.45
2022-12-24T20:10:58.769Z,50.85
2022-12-24T20:14:02.306Z,56.58
2022-12-24T20:17:04.071Z,42.40
2022-12-24T20:20:06.375Z,50.72
2022-12-24T20:23:09.569Z,46.83
2022-12-24T20:26:13.723Z,49.63
2022-12-24T20:29:15.321Z,50.33
2022-12-24T20:32:16.927Z,43.58
2022-12-24T20:35:18.588Z,50.90
2022-12-24T20:38:20.219Z,48.88
2022-12-24T20:41:23.683Z,45.50
2022-12-24T20:44:25.264Z,45.45
2022-12-24T20:47:27.533Z,46.90
2022-12-24T20:50:29.086Z,54.03
2022-12-24T20:53:30.632Z,43.72
2022-12-24T20:56:32.332Z,49.83
2022-12-24T20:59:34.037Z,47.40
2022-12-24T21:02:36.126Z,51.92
2022-12-24T21:05:41.019Z,43.42
2022-12-24T21:08:42.770Z,43.47
2022-12-24T21:11:50.488Z,43.22
2022-12-24T21:14:52.142Z,43.38
2022-12-24T21:17:54.431Z,48.13
2022-12-24T21:20:55.999Z,38.75
2022-12-24T21:23:57.932Z,41.83
2022-12-24T21:26:59.495Z,42.50
2022-12-24T21:30:01.122Z,40.00
2022-12-24T21:33:02.686Z,38.67
2022-12-24T21:36:04.456Z,36.22
2022-12-24T21:39:06.110Z,39.53
2022-12-24T21:42:07.746Z,41.15
2022-12-24T21:45:10.422Z,37.75
2022-12-24T21:48:31.964Z,37.22
2022-12-24T21:51:33.569Z,36.55
2022-12-24T21:54:35.150Z,47.22
2022-12-24T21:57:54.891Z,37.60
2022-12-24T22:00:56.529Z,41.40
2022-12-24T22:03:58.099Z,43.47
2022-12-24T22:07:19.356Z,42.63
2022-12-24T22:10:39.694Z,34.33
2022-12-24T22:13:41.239Z,38.15
2022-12-24T22:16:43.093Z,35.40
2022-12-24T22:19:44.735Z,33.90
2022-12-24T22:22:47.942Z,34.95
2022-12-24T22:25:49.483Z,33.88
2022-12-24T22:28:51.008Z,28.95
2022-12-24T22:31:52.638Z,43.95
2022-12-24T22:34:54.204Z,32.78
2022-12-24T22:37:59.869Z,38.05
2022-12-24T22:41:07.987Z,32.28
2022-12-24T22:44:10.204Z,35.38
2022-12-24T22:47:11.741Z,37.33
2022-12-24T22:50:13.406Z,34.80
2022-12-24T22:53:14.974Z,34.10
2022-12-24T22:56:19.867Z,33.80
2022-12-24T22:59:21.484Z,35.65
2022-12-24T23:02:28.168Z,29.77
2022-12-24T23:05:30.501Z,29.15
2022-12-24T23:08:34.941Z,34.17
2022-12-24T23:11:36.628Z,32.22
2022-12-24T23:14:56.476Z,25.45
2022-12-24T23:17:58.176Z,34.28
2022-12-24T23:21:05.720Z,27.83
2022-12-24T23:24:08.945Z,26.55
2022-12-24T23:27:10.544Z,28.30
2022-12-24T23:30:12.457Z,32.83
2022-12-24T23:33:14.013Z,24.60
2022-12-24T23:36:16.012Z,23.65
2022-12-24T23:39:17.671Z,23.80
2022-12-24T23:42:19.221Z,28.70
2022-12-24T23:45:20.767Z,24.83
2022-12-24T23:48:23.594Z,23.73
2022-12-24T23:51:27.822Z,26.30
2022-12-24T23:54:29.496Z,26.73
2022-12-24T23:57:31.450Z,32.40
